createdAt,value
2022-09-30T00:04:34.592Z,100
2022-09-30T00:09:32.838Z,100
2022-09-30T00:14:30.965Z,100
2022-09-30T00:19:29.109Z,100
2022-09-30T00:24:27.173Z,100
2022-09-30T00:29:25.207Z,100
2022-09-30T00:34:23.443Z,100
2022-09-30T00:39:21.831Z,100
2022-09-30T00:44:19.821Z,100
2022-09-30T00:49:18.004Z,100
2022-09-30T00:54:16.157Z,100
2022-09-30T00:59:14.242Z,100
2022-09-30T01:04:12.206Z,100
2022-09-30T01:09:10.215Z,100
2022-09-30T01:14:07.967Z,100
2022-09-30T01:19:05.982Z,100
2022-09-30T01:24:03.990Z,100
2022-09-30T01:29:02.045Z,100
2022-09-30T01:34:00.110Z,100
2022-09-30T01:38:58.256Z,100
2022-09-30T01:43:56.281Z,100
2022-09-30T01:48:54.383Z,100
2022-09-30T01:53:52.307Z,100
2022-09-30T01:58:50.471Z,100
2022-09-30T02:03:48.480Z,100
2022-09-30T02:08:46.669Z,100
2022-09-30T02:13:44.755Z,100
2022-09-30T02:18:43.002Z,100
2022-09-30T02:23:41.367Z,100
2022-09-30T02:28:40.432Z,100
2022-09-30T02:33:38.683Z,100
2022-09-30T02:38:36.680Z,100
2022-09-30T02:43:34.668Z,100
2022-09-30T02:48:32.798Z,100
2022-09-30T02:53:31.524Z,100
2022-09-30T02:58:30.053Z,100
2022-09-30T03:03:28.367Z,100
2022-09-30T03:08:26.283Z,100
2022-09-30T03:13:24.502Z,100
2022-09-30T03:18:22.842Z,100
2022-09-30T03:23:21.246Z,100
2022-09-30T03:28:19.509Z,100
2022-09-30T03:33:17.808Z,100
2022-09-30T03:38:16.140Z,100
2022-09-30T03:43:13.952Z,100
2022-09-30T03:48:12.031Z,100
2022-09-30T03:53:10.459Z,100
2022-09-30T03:58:08.859Z,100
2022-09-30T04:03:07.168Z,100
2022-09-30T04:08:05.842Z,100
2022-09-30T04:13:03.943Z,100
2022-09-30T04:18:02.143Z,100
2022-09-30T04:23:00.632Z,100
2022-09-30T04:27:59.003Z,100
2022-09-30T04:32:57.184Z,100
2022-09-30T04:37:54.940Z,100
2022-09-30T04:42:53.640Z,100
2022-09-30T04:47:52.566Z,100
2022-09-30T04:52:50.707Z,100
2022-09-30T04:57:49.208Z,100
2022-09-30T05:02:47.569Z,100
2022-09-30T05:07:46.170Z,100
2022-09-30T05:12:44.810Z,100
2022-09-30T05:17:43.258Z,100
2022-09-30T05:22:41.725Z,100
2022-09-30T05:27:40.260Z,100
2022-09-30T05:32:38.385Z,100
2022-09-30T05:37:36.934Z,100
2022-09-30T05:42:35.791Z,100
2022-09-30T05:47:34.499Z,100
2022-09-30T05:52:32.611Z,100
2022-09-30T05:57:30.835Z,100
2022-09-30T06:02:28.983Z,100
2022-09-30T06:07:27.714Z,100
2022-09-30T06:12:26.461Z,100
2022-09-30T06:17:25.368Z,97.9
2022-09-30T06:22:25.551Z,90.1
2022-09-30T06:27:23.861Z,88.4
2022-09-30T06:32:22.688Z,85.2
2022-09-30T06:37:19.704Z,88.1
2022-09-30T06:42:17.706Z,85.7
2022-09-30T06:47:22.859Z,85.4
2022-09-30T06:52:13.752Z,79.3
2022-09-30T06:57:14.777Z,76.4
2022-09-30T07:02:14.004Z,66.4
2022-09-30T07:07:15.551Z,63.9
2022-09-30T07:12:15.172Z,57.3
2022-09-30T07:17:14.652Z,54
2022-09-30T07:22:12.284Z,53.7
2022-09-30T07:27:11.361Z,51.7
2022-09-30T07:32:10.111Z,50.2
2022-09-30T07:37:07.821Z,50.7
2022-09-30T07:42:07.079Z,48.3
2022-09-30T07:47:06.009Z,47.3
2022-09-30T07:52:04.601Z,46.7
2022-09-30T07:57:11.654Z,45.3
2022-09-30T08:02:01.872Z,45.7
2022-09-30T08:07:00.286Z,44.1
2022-09-30T08:11:59.446Z,40.2
2022-09-30T08:16:57.533Z,38.5
2022-09-30T08:21:56.540Z,39.7
2022-09-30T08:26:55.130Z,38.5
2022-09-30T08:31:52.630Z,37.7
2022-09-30T08:36:50.819Z,36.5
2022-09-30T08:41:49.528Z,36.4
2022-09-30T08:46:47.425Z,36.3
2022-09-30T08:51:45.900Z,36
2022-09-30T08:56:43.394Z,35.7
2022-09-30T09:01:41.936Z,35.7
2022-09-30T09:06:40.726Z,34.9
2022-09-30T09:11:41.218Z,35.2
2022-09-30T09:16:36.055Z,35.4
2022-09-30T09:21:35.563Z,34.4
2022-09-30T09:26:33.348Z,34.5
2022-09-30T09:31:31.507Z,35.2
2022-09-30T09:36:30.156Z,34.3
2022-09-30T09:41:28.194Z,34.8
2022-09-30T09:46:27.290Z,33.6
2022-09-30T09:51:25.681Z,33.5
2022-09-30T09:56:23.181Z,33.8
2022-09-30T10:01:21.635Z,33.9
2022-09-30T10:06:20.032Z,32.9
2022-09-30T10:11:18.221Z,32
2022-09-30T10:16:16.134Z,31.2
2022-09-30T10:21:13.107Z,32
2022-09-30T10:26:11.318Z,31.9
2022-09-30T10:31:09.377Z,32.6
2022-09-30T10:36:08.036Z,30.4
2022-09-30T10:41:07.335Z,29.7
2022-09-30T10:46:24.963Z,28.5
2022-09-30T10:51:03.712Z,28.5
2022-09-30T10:56:01.045Z,31.5
2022-09-30T11:01:00.066Z,28.5
2022-09-30T11:05:59.124Z,30.9
2022-09-30T11:10:55.918Z,31.4
2022-09-30T11:15:52.571Z,32.3
2022-09-30T11:20:49.395Z,34.7
2022-09-30T11:25:47.859Z,33.8
2022-09-30T11:30:44.445Z,36.8
2022-09-30T11:35:42.628Z,38.7
2022-09-30T11:40:40.714Z,35
2022-09-30T11:45:39.077Z,37.6
2022-09-30T11:50:37.411Z,33.4
2022-09-30T11:55:38.591Z,29.5
2022-09-30T12:00:37.597Z,30.4
2022-09-30T12:05:36.102Z,28.1
2022-09-30T12:10:34.203Z,29.9
2022-09-30T12:15:32.040Z,29.6
2022-09-30T12:20:29.270Z,30.8
2022-09-30T12:25:27.418Z,29
2022-09-30T12:30:24.450Z,33.9
2022-09-30T12:35:19.971Z,37.7
2022-09-30T12:40:19.178Z,35.7
2022-09-30T12:45:17.363Z,38.1
2022-09-30T12:50:14.587Z,39.9
2022-09-30T12:55:11.709Z,40.4
2022-09-30T13:00:09.226Z,42.6
2022-09-30T13:05:07.131Z,45.2
2022-09-30T13:10:05.709Z,45.9
2022-09-30T13:15:06.812Z,43.9
2022-09-30T13:20:02.672Z,47.4
2022-09-30T13:24:58.996Z,48.5
2022-09-30T13:29:57.451Z,49.4
2022-09-30T13:34:55.701Z,51.4
2022-09-30T13:39:53.739Z,50.1
2022-09-30T13:44:55.274Z,50.1
2022-09-30T13:49:49.413Z,53.3
2022-09-30T13:54:47.016Z,55.1
2022-09-30T13:59:44.715Z,54.7
2022-09-30T14:04:42.573Z,58.7
2022-09-30T14:09:40.496Z,55.6
2022-09-30T14:14:38.428Z,56.7
2022-09-30T14:19:36.937Z,54.2
2022-09-30T14:24:37.720Z,52.2
2022-09-30T14:29:33.823Z,55.2
2022-09-30T14:39:33.413Z,62.2
2022-09-30T14:44:30.877Z,64.4
2022-09-30T14:49:28.720Z,65.4
2022-09-30T14:54:26.490Z,67.9
2022-09-30T14:59:24.212Z,69.4
2022-09-30T15:04:22.123Z,73.7
2022-09-30T15:09:19.660Z,73.8
2022-09-30T15:14:17.178Z,76.3
2022-09-30T15:19:14.777Z,79.1
2022-09-30T15:24:12.512Z,78.9
2022-09-30T15:29:10.346Z,79.6
2022-09-30T15:34:08.180Z,82
2022-09-30T15:39:05.853Z,81.8
2022-09-30T15:44:03.674Z,81.6
2022-09-30T15:49:01.498Z,83.1
2022-09-30T15:53:59.722Z,84.1
2022-09-30T15:58:57.658Z,86.3
2022-09-30T16:03:55.633Z,88.3
2022-09-30T16:08:53.608Z,89
2022-09-30T16:13:51.493Z,90
2022-09-30T16:18:49.385Z,91.5
2022-09-30T16:23:47.206Z,92
2022-09-30T16:28:45.116Z,95.4
2022-09-30T16:33:43.185Z,96.5
2022-09-30T16:38:41.200Z,96.8
2022-09-30T16:43:39.196Z,96.9
2022-09-30T16:48:37.096Z,97
2022-09-30T16:53:35.271Z,98.8
2022-09-30T16:58:33.211Z,99.4
2022-09-30T17:03:31.322Z,100
2022-09-30T17:08:29.424Z,100
2022-09-30T17:13:27.287Z,100
2022-09-30T17:18:25.596Z,100
2022-09-30T17:23:23.500Z,100
2022-09-30T17:28:21.603Z,100
2022-09-30T17:33:19.690Z,100
2022-09-30T17:38:17.762Z,100
2022-09-30T17:43:15.781Z,100
2022-09-30T17:48:13.818Z,100
2022-09-30T17:53:11.943Z,100
2022-09-30T17:58:10.183Z,100
2022-09-30T18:03:08.211Z,100
2022-09-30T18:08:06.529Z,100
2022-09-30T18:13:04.544Z,100
2022-09-30T18:18:02.683Z,100
2022-09-30T18:23:01.170Z,100
2022-09-30T18:27:59.570Z,100
2022-09-30T18:32:57.616Z,100
2022-09-30T18:37:56.050Z,100
2022-09-30T18:42:54.314Z,100
2022-09-30T18:47:52.554Z,100
2022-09-30T18:52:50.951Z,100
2022-09-30T18:57:49.320Z,100
2022-09-30T19:02:47.530Z,100
2022-09-30T19:07:45.546Z,100
2022-09-30T19:12:44.021Z,100
2022-09-30T19:17:42.385Z,96.9
2022-09-30T19:22:40.577Z,100
2022-09-30T19:27:38.677Z,100
2022-09-30T19:32:36.800Z,100
2022-09-30T19:37:35.023Z,100
2022-09-30T19:42:33.224Z,100
2022-09-30T19:47:34.298Z,100
2022-09-30T19:52:30.030Z,100
2022-09-30T19:57:28.809Z,100
2022-09-30T20:02:27.090Z,100
2022-09-30T20:07:25.683Z,100
2022-09-30T20:12:24.088Z,100
2022-09-30T20:17:22.562Z,100
2022-09-30T20:22:20.993Z,100
2022-09-30T20:27:19.410Z,100
2022-09-30T20:32:17.519Z,100
2022-09-30T20:37:15.396Z,100
2022-09-30T20:42:12.713Z,100
2022-09-30T20:47:10.636Z,100
2022-09-30T20:52:08.739Z,100
2022-09-30T20:57:08.027Z,100
2022-09-30T21:02:05.941Z,100
2022-09-30T21:07:03.928Z,100
2022-09-30T21:12:02.051Z,100
2022-09-30T21:16:59.990Z,100
2022-09-30T21:21:57.959Z,100
2022-09-30T21:26:55.709Z,100
2022-09-30T21:31:53.798Z,100
2022-09-30T21:36:51.722Z,100
2022-09-30T21:41:49.478Z,100
2022-09-30T21:46:48.918Z,100
2022-09-30T21:51:45.772Z,100
2022-09-30T21:56:43.758Z,100
2022-09-30T22:01:41.457Z,100
2022-09-30T22:06:39.503Z,100
2022-09-30T22:11:37.725Z,100
2022-09-30T22:16:35.849Z,100
2022-09-30T22:21:34.167Z,100
2022-09-30T22:26:31.812Z,100
2022-09-30T22:31:29.763Z,100
2022-09-30T22:36:27.692Z,100
2022-09-30T22:41:25.885Z,100
2022-09-30T22:46:23.964Z,100
2022-09-30T22:51:22.156Z,100
2022-09-30T22:56:20.372Z,100
2022-09-30T23:01:18.436Z,100
2022-09-30T23:06:16.560Z,100
2022-09-30T23:11:14.667Z,100
2022-09-30T23:16:12.737Z,100
2022-09-30T23:21:10.783Z,100
2022-09-30T23:26:08.738Z,100
2022-09-30T23:31:07.001Z,100
2022-09-30T23:36:05.300Z,100
2022-09-30T23:41:03.477Z,100
2022-09-30T23:46:01.637Z,100
2022-09-30T23:50:59.744Z,100
2022-09-30T23:55:57.954Z,100
